Silverado, California
Current Conditions -  °F | °C
As of 1:56 PM on Tuesday 25 Nov 2014 (Local Time) from KAJO Reporting Station
Clear Clear  
Wind Chill: 81°   Ceiling: Unl
Heat Index: 81°   Visibility: 10mi
Dew Point:   Wind: 3mph
Humidity: 5%   Direction: 280°W
Pressure: 30.27"   Gusts: NA
Location:  33.75°N, 117.64°W
Report Text: KAJO 252156Z AUTO 28003KT 10SM CLR 27/M17 A3027 RMK AO2 T02721172 SLP245 $
Loading
Personal Weather Stations






























Interactive Weather Map New forecast layout! Learn more

10-Day Weather Forecast

Advertisements
Track Severe Weather on mobile